createdAt,value
2018-11-26T00:01:09.840Z,3.06
2018-11-26T00:03:37.433Z,3.12
2018-11-26T00:06:05.609Z,3.07
2018-11-26T00:08:33.181Z,3.11
2018-11-26T00:11:06.451Z,3.18
2018-11-26T00:13:33.983Z,3.07
2018-11-26T00:16:01.528Z,3.19
2018-11-26T00:18:29.384Z,3.19
2018-11-26T00:20:56.947Z,3.19
2018-11-26T00:23:24.489Z,3.09
2018-11-26T00:25:52.351Z,3.04
2018-11-26T00:28:19.912Z,2.98
2018-11-26T00:30:47.463Z,3.07
2018-11-26T00:33:15.052Z,3.15
2018-11-26T00:35:42.623Z,3.13
2018-11-26T00:38:10.263Z,3.00
2018-11-26T00:40:37.839Z,3.03
2018-11-26T00:43:05.400Z,3.12
2018-11-26T00:45:34.180Z,2.98
2018-11-26T00:48:01.966Z,2.95
2018-11-26T00:50:29.526Z,2.93
2018-11-26T00:52:57.103Z,2.95
2018-11-26T00:55:24.651Z,3.01
2018-11-26T00:57:52.570Z,3.09
2018-11-26T01:00:20.123Z,2.97
2018-11-26T01:02:47.691Z,2.92
2018-11-26T01:05:48.181Z,2.97
2018-11-26T01:08:15.726Z,3.04
2018-11-26T01:10:43.314Z,3.03
2018-11-26T01:13:10.927Z,3.10
2018-11-26T01:15:38.476Z,3.14
2018-11-26T01:18:06.116Z,3.08
2018-11-26T01:20:33.752Z,3.05
2018-11-26T01:23:01.321Z,3.00
2018-11-26T01:25:28.911Z,3.00
2018-11-26T01:27:57.664Z,2.99
2018-11-26T01:30:25.231Z,2.99
2018-11-26T01:32:52.784Z,2.95
2018-11-26T01:35:20.939Z,2.97
2018-11-26T01:37:48.519Z,3.01
2018-11-26T01:40:21.551Z,2.98
2018-11-26T01:42:49.218Z,3.04
2018-11-26T01:45:16.818Z,3.01
2018-11-26T01:47:44.389Z,3.04
2018-11-26T01:50:11.942Z,3.01
2018-11-26T01:52:39.522Z,3.01
2018-11-26T01:55:07.832Z,2.98
2018-11-26T01:57:35.472Z,3.07
2018-11-26T02:00:05.163Z,2.96
2018-11-26T02:02:32.683Z,3.02
2018-11-26T02:05:00.229Z,2.90
2018-11-26T02:07:28.158Z,2.97
2018-11-26T02:09:55.710Z,2.96
2018-11-26T02:12:23.263Z,2.96
2018-11-26T02:14:50.956Z,2.96
2018-11-26T02:17:18.571Z,3.02
2018-11-26T02:19:46.150Z,2.91
2018-11-26T02:22:13.728Z,3.01
2018-11-26T02:24:41.324Z,2.97
2018-11-26T02:27:08.904Z,2.91
2018-11-26T02:29:36.451Z,2.94
2018-11-26T02:32:04.011Z,2.90
2018-11-26T02:34:31.632Z,2.95
2018-11-26T02:36:59.179Z,3.02
2018-11-26T02:39:26.782Z,3.00
2018-11-26T02:41:54.338Z,3.00
2018-11-26T02:44:21.917Z,3.02
2018-11-26T02:46:49.467Z,3.04
2018-11-26T02:49:17.003Z,2.99
2018-11-26T02:51:44.667Z,3.08
2018-11-26T02:54:12.239Z,3.00
2018-11-26T02:56:40.148Z,3.18
2018-11-26T02:59:07.763Z,3.12
2018-11-26T03:01:35.328Z,3.11
2018-11-26T03:04:02.933Z,3.10
2018-11-26T03:06:30.603Z,3.07
2018-11-26T03:08:58.176Z,3.03
2018-11-26T03:11:25.980Z,2.94
2018-11-26T03:13:53.603Z,2.95
2018-11-26T03:16:21.147Z,2.90
2018-11-26T03:18:48.701Z,2.86
2018-11-26T03:21:16.275Z,2.85
2018-11-26T03:23:43.824Z,2.77
2018-11-26T03:26:11.389Z,2.76
2018-11-26T03:28:38.956Z,2.74
2018-11-26T03:31:06.908Z,2.85
2018-11-26T03:33:34.884Z,2.80
2018-11-26T03:36:02.430Z,2.75
2018-11-26T03:38:35.679Z,2.84
2018-11-26T03:41:03.204Z,2.84
2018-11-26T03:43:30.759Z,2.83
2018-11-26T03:45:58.381Z,2.78
2018-11-26T03:48:25.944Z,2.87
2018-11-26T03:50:53.630Z,2.80
2018-11-26T03:53:21.167Z,2.78
2018-11-26T03:55:48.717Z,2.76
2018-11-26T03:58:16.243Z,2.82
2018-11-26T04:00:43.872Z,2.83
2018-11-26T04:03:11.423Z,2.79
2018-11-26T04:05:39.699Z,2.70
2018-11-26T04:08:07.339Z,2.88
2018-11-26T04:10:35.230Z,2.84
2018-11-26T04:13:02.788Z,2.79
2018-11-26T04:15:30.390Z,2.74
2018-11-26T04:17:57.935Z,2.69
2018-11-26T04:20:25.472Z,2.71
2018-11-26T04:22:53.019Z,2.72
2018-11-26T04:25:20.583Z,2.64
2018-11-26T04:27:48.124Z,2.58
2018-11-26T04:30:15.692Z,2.52
2018-11-26T04:32:43.319Z,2.45
2018-11-26T04:35:10.884Z,2.54
2018-11-26T04:37:38.438Z,2.58
2018-11-26T04:40:07.475Z,2.47
2018-11-26T04:42:35.016Z,2.44
2018-11-26T04:45:02.599Z,2.40
2018-11-26T04:47:30.168Z,2.44
2018-11-26T04:49:57.724Z,2.42
2018-11-26T04:52:25.303Z,2.48
2018-11-26T04:54:53.243Z,2.46
2018-11-26T04:57:20.792Z,2.44
2018-11-26T04:59:48.403Z,2.48
2018-11-26T05:02:15.964Z,2.56
2018-11-26T05:04:44.196Z,2.48
2018-11-26T05:07:12.039Z,2.45
2018-11-26T05:09:39.576Z,2.44
2018-11-26T05:12:07.119Z,2.39
2018-11-26T05:14:34.696Z,2.52
2018-11-26T05:17:02.250Z,2.56
2018-11-26T05:19:30.916Z,2.63
2018-11-26T05:21:58.474Z,2.51
2018-11-26T05:24:26.059Z,2.63
2018-11-26T05:26:53.880Z,2.60
2018-11-26T05:29:21.420Z,2.60
2018-11-26T05:31:49.840Z,2.47
2018-11-26T05:34:17.419Z,2.59
2018-11-26T05:36:44.995Z,2.52
2018-11-26T05:39:12.547Z,2.55
2018-11-26T05:41:40.430Z,2.46
2018-11-26T05:44:08.088Z,2.50
2018-11-26T05:46:35.647Z,2.46
2018-11-26T05:49:03.232Z,2.57
2018-11-26T05:51:30.764Z,2.49
2018-11-26T05:53:58.319Z,2.54
2018-11-26T05:56:25.891Z,2.57
2018-11-26T05:58:53.510Z,2.51
2018-11-26T06:01:21.075Z,2.55
2018-11-26T06:03:48.637Z,2.52
2018-11-26T06:06:17.253Z,2.63
2018-11-26T06:08:44.807Z,2.55
2018-11-26T06:11:12.339Z,2.59
2018-11-26T06:13:40.242Z,2.52
2018-11-26T06:16:07.833Z,2.48
2018-11-26T06:18:35.383Z,2.51
2018-11-26T06:21:02.959Z,2.60
2018-11-26T06:23:30.496Z,2.48
2018-11-26T06:25:58.047Z,2.60
2018-11-26T06:28:25.902Z,2.65
2018-11-26T06:30:53.479Z,2.60
2018-11-26T06:33:21.013Z,2.54
2018-11-26T06:35:49.584Z,2.48
2018-11-26T06:38:17.124Z,2.41
2018-11-26T06:40:44.670Z,2.46
2018-11-26T06:43:12.256Z,2.42
2018-11-26T06:45:39.842Z,2.36
2018-11-26T06:48:07.400Z,2.43
2018-11-26T06:50:34.950Z,2.43
2018-11-26T06:53:03.029Z,2.51
2018-11-26T06:55:30.572Z,2.41
2018-11-26T06:57:58.128Z,2.37
2018-11-26T07:00:25.687Z,2.39
2018-11-26T07:02:53.576Z,2.46
2018-11-26T07:05:21.716Z,2.34
2018-11-26T07:07:49.295Z,2.29
2018-11-26T07:10:17.272Z,2.41
2018-11-26T07:12:44.815Z,2.39
2018-11-26T07:15:12.936Z,2.43
2018-11-26T07:17:40.527Z,2.46
2018-11-26T07:20:08.976Z,2.40
2018-11-26T07:22:36.921Z,2.44
2018-11-26T07:25:05.861Z,2.42
2018-11-26T07:27:33.387Z,2.41
2018-11-26T07:30:02.238Z,2.48
2018-11-26T07:32:29.811Z,2.54
2018-11-26T07:34:57.367Z,2.55
2018-11-26T07:37:24.955Z,2.45
2018-11-26T07:39:52.515Z,2.56
2018-11-26T07:42:20.059Z,2.53
2018-11-26T07:44:47.919Z,2.62
2018-11-26T07:47:15.495Z,2.67
2018-11-26T07:49:43.063Z,2.58
2018-11-26T07:52:11.103Z,2.62
2018-11-26T07:54:38.663Z,2.57
2018-11-26T07:57:06.226Z,2.71
2018-11-26T07:59:33.828Z,2.69
2018-11-26T08:02:01.368Z,2.67
2018-11-26T08:04:28.956Z,2.76
2018-11-26T08:06:56.767Z,2.69
2018-11-26T08:09:24.369Z,2.78
2018-11-26T08:11:51.939Z,2.83
2018-11-26T08:14:20.081Z,2.84
2018-11-26T08:16:47.740Z,2.78
2018-11-26T08:19:15.292Z,2.77
2018-11-26T08:21:42.912Z,2.83
2018-11-26T08:24:10.483Z,2.88
2018-11-26T08:26:38.054Z,2.86
2018-11-26T08:29:05.723Z,2.97
2018-11-26T08:31:33.291Z,2.90
2018-11-26T08:34:00.850Z,3.06
2018-11-26T08:36:33.862Z,3.11
2018-11-26T08:39:08.569Z,3.03
2018-11-26T08:41:37.003Z,3.00
2018-11-26T08:44:10.539Z,2.94
2018-11-26T08:46:43.774Z,2.97
2018-11-26T08:49:13.774Z,2.90
2018-11-26T08:51:41.304Z,2.98
2018-11-26T08:54:08.972Z,2.90
2018-11-26T08:56:36.539Z,2.98
2018-11-26T08:59:04.408Z,2.94
2018-11-26T09:01:33.520Z,3.06
2018-11-26T09:04:08.706Z,3.05
2018-11-26T09:06:36.600Z,3.09
2018-11-26T09:09:06.562Z,3.12
2018-11-26T09:11:34.879Z,3.14
2018-11-26T09:14:03.077Z,3.16
2018-11-26T09:16:30.636Z,3.22
2018-11-26T09:18:58.489Z,3.29
2018-11-26T09:21:26.108Z,3.31
2018-11-26T09:23:54.140Z,3.46
2018-11-26T09:26:22.087Z,3.48
2018-11-26T09:28:49.708Z,3.52
2018-11-26T09:31:17.387Z,3.55
2018-11-26T09:33:44.966Z,3.64
2018-11-26T09:36:12.530Z,3.78
2018-11-26T09:38:40.109Z,3.77
2018-11-26T09:41:07.701Z,3.82
2018-11-26T09:43:35.683Z,3.95
2018-11-26T09:46:03.259Z,4.05
2018-11-26T09:48:30.849Z,4.04
2018-11-26T09:50:58.823Z,3.99
2018-11-26T09:53:26.410Z,4.22
2018-11-26T09:55:54.024Z,4.09
2018-11-26T09:58:22.511Z,4.10
2018-11-26T10:00:50.134Z,4.06
2018-11-26T10:03:17.694Z,4.04
2018-11-26T10:05:45.210Z,4.07
2018-11-26T10:08:12.804Z,4.00
2018-11-26T10:10:40.373Z,3.92
2018-11-26T10:13:07.919Z,3.97
2018-11-26T10:15:35.488Z,3.87
2018-11-26T10:18:03.060Z,3.91
2018-11-26T10:20:30.743Z,3.92
2018-11-26T10:22:58.375Z,3.96
2018-11-26T10:25:25.958Z,3.78
2018-11-26T10:27:53.556Z,3.83
2018-11-26T10:30:23.246Z,3.85
2018-11-26T10:32:50.039Z,3.84
2018-11-26T10:35:18.017Z,3.81
2018-11-26T10:37:45.931Z,3.73
2018-11-26T10:40:16.293Z,3.72
2018-11-26T10:42:43.865Z,3.65
2018-11-26T10:45:12.174Z,3.61
2018-11-26T10:47:39.711Z,3.64
2018-11-26T10:50:09.072Z,3.59
2018-11-26T10:52:37.595Z,3.59
2018-11-26T10:55:06.930Z,3.48
2018-11-26T10:57:34.495Z,3.45
2018-11-26T11:00:02.149Z,3.39
2018-11-26T11:02:35.293Z,3.47
2018-11-26T11:05:02.880Z,3.35
2018-11-26T11:07:30.426Z,3.29
2018-11-26T11:09:57.985Z,3.24
2018-11-26T11:12:25.571Z,3.20
2018-11-26T11:14:53.124Z,3.27
2018-11-26T11:17:20.726Z,3.22
2018-11-26T11:19:48.279Z,3.14
2018-11-26T11:22:16.212Z,3.09
2018-11-26T11:24:43.794Z,3.16
2018-11-26T11:27:11.349Z,3.20
2018-11-26T11:29:38.949Z,3.23
2018-11-26T11:32:06.564Z,3.35
2018-11-26T11:34:34.136Z,3.36
2018-11-26T11:37:01.693Z,3.26
2018-11-26T11:39:29.282Z,3.27
2018-11-26T11:41:57.188Z,3.17
2018-11-26T11:44:24.736Z,3.22
2018-11-26T11:46:52.293Z,3.28
2018-11-26T11:49:19.849Z,3.22
2018-11-26T11:51:48.166Z,3.37
2018-11-26T11:54:15.761Z,3.35
2018-11-26T11:56:43.456Z,3.30
2018-11-26T11:59:11.028Z,3.25
2018-11-26T12:01:39.321Z,3.21
2018-11-26T12:04:06.933Z,3.14
2018-11-26T12:06:34.945Z,3.29
2018-11-26T12:09:02.662Z,3.35
2018-11-26T12:11:30.231Z,3.19
2018-11-26T12:13:57.827Z,3.10
2018-11-26T12:16:25.433Z,3.15
2018-11-26T12:18:53.032Z,3.14
2018-11-26T12:21:20.623Z,3.19
2018-11-26T12:23:48.222Z,3.20
2018-11-26T12:26:15.807Z,3.16
2018-11-26T12:28:43.386Z,3.12
2018-11-26T12:31:10.945Z,3.20
2018-11-26T12:33:38.573Z,3.15
2018-11-26T12:36:06.465Z,3.10
2018-11-26T12:38:34.045Z,3.17
2018-11-26T12:41:01.741Z,3.19
2018-11-26T12:43:29.330Z,3.15
2018-11-26T12:45:57.849Z,3.19
2018-11-26T12:48:25.417Z,3.19
2018-11-26T12:50:53.034Z,3.13
2018-11-26T12:53:20.657Z,3.17
2018-11-26T12:55:48.228Z,3.27
2018-11-26T12:58:16.137Z,3.18
2018-11-26T13:00:43.724Z,3.06
2018-11-26T13:03:11.966Z,3.06
2018-11-26T13:05:39.581Z,3.07
2018-11-26T13:08:07.518Z,3.13
2018-11-26T13:10:35.109Z,3.12
2018-11-26T13:13:02.725Z,3.08
2018-11-26T13:15:30.329Z,3.10
2018-11-26T13:17:57.925Z,3.09
2018-11-26T13:20:27.958Z,3.11
2018-11-26T13:22:55.598Z,3.15
2018-11-26T13:25:24.607Z,3.16
2018-11-26T13:27:52.763Z,3.17
2018-11-26T13:30:22.010Z,3.07
2018-11-26T13:32:50.576Z,3.01
2018-11-26T13:35:18.457Z,3.02
2018-11-26T13:37:46.369Z,3.01
2018-11-26T13:40:14.457Z,3.03
2018-11-26T13:42:42.087Z,3.06
2018-11-26T13:45:11.189Z,3.12
2018-11-26T13:47:39.166Z,2.95
2018-11-26T13:50:23.045Z,2.97
2018-11-26T13:52:50.267Z,3.18
2018-11-26T13:55:17.889Z,3.09
2018-11-26T13:57:45.560Z,2.96
2018-11-26T14:00:13.846Z,3.00
2018-11-26T14:02:41.429Z,2.98
2018-11-26T14:05:09.622Z,3.11
2018-11-26T14:07:37.256Z,3.00
2018-11-26T14:10:12.318Z,2.92
2018-11-26T14:12:40.196Z,3.00
2018-11-26T14:15:09.414Z,2.91
2018-11-26T14:17:37.066Z,2.92
2018-11-26T14:20:05.892Z,2.87
2018-11-26T14:22:33.495Z,2.95
2018-11-26T14:25:01.074Z,2.93
2018-11-26T14:27:28.643Z,2.94
2018-11-26T14:29:56.680Z,2.98
2018-11-26T14:32:24.269Z,3.04
2018-11-26T14:34:51.836Z,2.97
2018-11-26T14:37:20.482Z,3.03
2018-11-26T14:39:48.071Z,3.02
2018-11-26T14:42:15.657Z,3.04
2018-11-26T14:44:43.270Z,2.91
2018-11-26T14:47:10.858Z,2.89
2018-11-26T14:49:38.470Z,2.87
2018-11-26T14:52:06.107Z,2.83
2018-11-26T14:54:33.683Z,2.77
2018-11-26T14:57:02.134Z,2.78
2018-11-26T14:59:29.774Z,2.69
2018-11-26T15:01:57.349Z,2.74
2018-11-26T15:04:24.912Z,2.78
2018-11-26T15:06:52.545Z,2.76
2018-11-26T15:09:21.225Z,2.82
2018-11-26T15:11:48.793Z,2.79
2018-11-26T15:14:16.356Z,2.84
2018-11-26T15:16:43.939Z,2.87
2018-11-26T15:19:11.536Z,2.86
2018-11-26T15:21:39.200Z,2.85
2018-11-26T15:24:06.796Z,2.84
2018-11-26T15:26:34.372Z,2.85
2018-11-26T15:29:02.037Z,2.83
2018-11-26T15:31:29.624Z,2.89
2018-11-26T15:33:57.219Z,2.82
2018-11-26T15:36:24.799Z,2.90
2018-11-26T15:38:52.546Z,2.78
2018-11-26T15:41:20.173Z,2.78
2018-11-26T15:43:47.768Z,2.71
2018-11-26T15:46:15.341Z,2.69
2018-11-26T15:48:43.190Z,2.75
2018-11-26T15:51:10.764Z,2.83
2018-11-26T15:53:38.342Z,2.77
2018-11-26T15:56:06.304Z,2.71
2018-11-26T15:58:33.931Z,2.72
2018-11-26T16:01:01.595Z,2.72
2018-11-26T16:03:29.195Z,2.74
2018-11-26T16:05:56.782Z,2.64
2018-11-26T16:08:24.304Z,2.66
2018-11-26T16:10:52.251Z,2.83
2018-11-26T16:13:19.836Z,2.84
2018-11-26T16:15:47.412Z,2.82
2018-11-26T16:18:15.969Z,2.80
2018-11-26T16:20:43.550Z,2.80
2018-11-26T16:23:11.133Z,2.88
2018-11-26T16:25:39.748Z,2.77
2018-11-26T16:28:07.515Z,2.77
2018-11-26T16:30:35.142Z,2.70
2018-11-26T16:33:02.713Z,2.72
2018-11-26T16:35:31.120Z,2.78
2018-11-26T16:37:58.764Z,2.78
2018-11-26T16:40:26.413Z,2.75
2018-11-26T16:42:54.064Z,2.77
2018-11-26T16:45:22.794Z,2.71
2018-11-26T16:47:50.992Z,2.68
2018-11-26T16:50:19.201Z,2.68
2018-11-26T16:52:46.825Z,2.64
2018-11-26T16:55:14.976Z,2.64
2018-11-26T16:57:42.613Z,2.70
2018-11-26T17:00:11.270Z,2.75
2018-11-26T17:02:38.873Z,2.76
2018-11-26T17:05:07.603Z,2.72
2018-11-26T17:07:35.246Z,2.73
2018-11-26T17:10:02.849Z,2.77
2018-11-26T17:12:30.503Z,2.68
2018-11-26T17:14:58.162Z,2.72
2018-11-26T17:17:25.988Z,2.69
2018-11-26T17:19:53.599Z,2.69
2018-11-26T17:22:21.205Z,2.73
2018-11-26T17:24:48.753Z,2.75
2018-11-26T17:27:16.325Z,2.73
2018-11-26T17:29:43.954Z,2.79
2018-11-26T17:32:11.541Z,2.72
2018-11-26T17:34:39.186Z,2.73
2018-11-26T17:37:06.847Z,2.76
2018-11-26T17:39:34.731Z,2.82
2018-11-26T17:42:02.385Z,2.80
2018-11-26T17:44:30.033Z,2.73
2018-11-26T17:46:57.694Z,2.76
2018-11-26T17:49:25.344Z,2.71
2018-11-26T17:51:53.001Z,2.62
2018-11-26T17:54:20.646Z,2.60
2018-11-26T17:56:48.245Z,2.63
2018-11-26T17:59:15.854Z,2.56
2018-11-26T18:01:44.478Z,2.57
2018-11-26T18:04:12.117Z,2.58
2018-11-26T18:06:39.706Z,2.54
2018-11-26T18:09:08.381Z,2.49
2018-11-26T18:11:35.983Z,2.48
2018-11-26T18:14:03.585Z,2.34
2018-11-26T18:16:31.312Z,2.31
2018-11-26T18:18:58.859Z,2.30
2018-11-26T18:21:26.543Z,2.31
2018-11-26T18:23:54.200Z,2.21
2018-11-26T18:26:21.813Z,2.25
2018-11-26T18:28:49.447Z,2.22
2018-11-26T18:31:17.089Z,2.07
2018-11-26T18:33:44.726Z,2.05
2018-11-26T18:36:12.398Z,2.19
2018-11-26T18:38:39.991Z,2.17
2018-11-26T18:41:07.604Z,2.25
2018-11-26T18:43:35.244Z,2.11
2018-11-26T18:46:03.124Z,2.07
2018-11-26T18:48:30.761Z,2.12
2018-11-26T18:50:58.341Z,2.12
2018-11-26T18:53:25.948Z,2.10
2018-11-26T18:55:53.566Z,2.13
2018-11-26T18:58:21.169Z,2.12
2018-11-26T19:00:51.758Z,2.18
2018-11-26T19:03:20.543Z,2.10
2018-11-26T19:05:49.906Z,2.00
2018-11-26T19:08:17.495Z,1.99
2018-11-26T19:10:45.405Z,1.99
2018-11-26T19:13:20.961Z,1.98
2018-11-26T19:15:49.187Z,2.00
2018-11-26T19:18:18.608Z,2.00
2018-11-26T19:20:46.291Z,2.05
2018-11-26T19:23:14.009Z,2.03
2018-11-26T19:25:41.625Z,2.01
2018-11-26T19:28:09.293Z,2.00
2018-11-26T19:30:36.971Z,1.97
2018-11-26T19:33:06.383Z,1.99
2018-11-26T19:35:34.056Z,1.98
2018-11-26T19:38:01.859Z,1.93
2018-11-26T19:40:29.469Z,1.92
2018-11-26T19:42:57.104Z,1.98
2018-11-26T19:45:24.663Z,1.94
2018-11-26T19:47:52.301Z,1.84
2018-11-26T19:50:20.055Z,1.87
2018-11-26T19:52:48.361Z,1.77
2018-11-26T19:55:18.166Z,1.77
2018-11-26T19:57:45.798Z,1.69
2018-11-26T20:00:14.216Z,1.67
2018-11-26T20:02:42.053Z,1.70
2018-11-26T20:05:10.910Z,1.69
2018-11-26T20:07:38.524Z,1.59
2018-11-26T20:10:07.146Z,1.61
2018-11-26T20:12:34.720Z,1.71
2018-11-26T20:15:02.718Z,1.75
2018-11-26T20:17:31.093Z,1.85
2018-11-26T20:19:58.703Z,1.80
2018-11-26T20:22:26.339Z,1.76
2018-11-26T20:24:54.033Z,1.65
2018-11-26T20:27:21.625Z,1.70
2018-11-26T20:29:49.266Z,1.75
2018-11-26T20:32:16.909Z,1.69
2018-11-26T20:34:45.317Z,1.69
2018-11-26T20:37:12.938Z,1.74
2018-11-26T20:39:42.747Z,1.80
2018-11-26T20:42:10.340Z,1.78
2018-11-26T20:44:38.302Z,1.74
2018-11-26T20:47:06.288Z,1.70
2018-11-26T20:49:33.961Z,1.60
2018-11-26T20:52:01.946Z,1.55
2018-11-26T20:54:29.677Z,1.59
2018-11-26T20:56:57.300Z,1.61
2018-11-26T20:59:24.875Z,1.57
2018-11-26T21:01:53.496Z,1.53
2018-11-26T21:04:21.076Z,1.51
2018-11-26T21:06:48.925Z,1.61
2018-11-26T21:09:16.916Z,1.65
2018-11-26T21:11:44.587Z,1.70
2018-11-26T21:14:12.178Z,1.74
2018-11-26T21:16:39.802Z,1.68
2018-11-26T21:19:07.378Z,1.63
2018-11-26T21:21:35.005Z,1.68
2018-11-26T21:24:02.604Z,1.61
2018-11-26T21:26:30.240Z,1.62
2018-11-26T21:28:57.852Z,1.66
2018-11-26T21:31:25.444Z,1.74
2018-11-26T21:33:53.011Z,1.73
2018-11-26T21:36:20.627Z,1.70
2018-11-26T21:38:48.237Z,1.78
2018-11-26T21:41:15.838Z,1.81
2018-11-26T21:43:43.503Z,1.89
2018-11-26T21:46:12.122Z,1.87
2018-11-26T21:48:38.743Z,1.86
2018-11-26T21:51:06.332Z,1.89
2018-11-26T21:53:33.972Z,1.96
2018-11-26T21:56:01.537Z,1.92
2018-11-26T21:58:29.093Z,1.91
2018-11-26T22:00:57.580Z,1.86
2018-11-26T22:03:30.408Z,1.82
2018-11-26T22:05:54.297Z,1.87
2018-11-26T22:08:21.887Z,1.81
2018-11-26T22:10:49.528Z,1.84
2018-11-26T22:13:18.126Z,1.85
2018-11-26T22:15:45.700Z,1.83
2018-11-26T22:18:13.307Z,1.81
2018-11-26T22:20:40.993Z,1.75
2018-11-26T22:23:08.616Z,1.80
2018-11-26T22:25:36.237Z,1.79
2018-11-26T22:28:04.560Z,1.82
2018-11-26T22:30:32.585Z,1.79
2018-11-26T22:33:00.300Z,1.81
2018-11-26T22:35:27.921Z,1.79
2018-11-26T22:37:55.501Z,1.79
2018-11-26T22:40:24.215Z,1.81
2018-11-26T22:42:52.207Z,1.83
2018-11-26T22:45:22.530Z,1.84
2018-11-26T22:47:57.402Z,1.90
2018-11-26T22:50:25.097Z,1.88
2018-11-26T22:52:52.657Z,1.89
2018-11-26T22:55:20.314Z,1.88
2018-11-26T22:57:47.918Z,1.89
2018-11-26T23:00:25.250Z,1.87
2018-11-26T23:02:54.389Z,1.87
2018-11-26T23:05:21.989Z,1.91
2018-11-26T23:07:49.569Z,1.81
2018-11-26T23:10:17.281Z,1.86
2018-11-26T23:12:44.885Z,1.91
2018-11-26T23:15:12.949Z,1.95
2018-11-26T23:17:40.694Z,1.86
2018-11-26T23:20:12.007Z,1.82
2018-11-26T23:22:39.568Z,1.75
2018-11-26T23:25:08.101Z,1.75
2018-11-26T23:27:35.708Z,1.76
2018-11-26T23:30:03.908Z,1.70
2018-11-26T23:32:31.473Z,1.80
2018-11-26T23:34:59.121Z,1.78
2018-11-26T23:37:26.988Z,1.77
2018-11-26T23:39:54.562Z,1.76
2018-11-26T23:42:22.120Z,1.75
2018-11-26T23:44:49.736Z,1.78
2018-11-26T23:47:17.796Z,1.73
2018-11-26T23:49:44.998Z,1.76
2018-11-26T23:52:12.581Z,1.76
2018-11-26T23:54:40.141Z,1.71
2018-11-26T23:57:07.968Z,1.63
2018-11-26T23:59:35.524Z,1.67
